Lafayette, Wisconsin
Current Conditions -  °F | °C
As of 10:56 AM on Wednesday 22 Oct 2014 (Local Time) from KEAU Reporting Station
Clear Clear  
Wind Chill: 42°   Ceiling: Unl
Heat Index: 48°   Visibility: 10mi
Dew Point: 36°   Wind: 14mph
Humidity: 63%   Direction: 160°SSE
Pressure: 30.28"   Gusts: NA
Location:  44.9743°N, 91.4379°W
Report Text: KEAU 221556Z 16012KT 10SM CLR 09/02 A3028 RMK AO2 SLP259 T00890022
Loading
Personal Weather Stations






























Interactive Weather Map
Tropical Storm Tracking
New forecast layout! Learn more

10-Day Weather Forecast

Advertisements
Track Severe Weather on mobile